sensor_id;sensor_type;location;lat;lon;timestamp;pressure;altitude;pressure_sealevel;temperature;humidity
31681;BME280;18281;51.364;9.566;2024-03-06T00:02:10;100142.84;;;4.82;100.00
31681;BME280;18281;51.364;9.566;2024-03-06T00:04:36;100140.44;;;4.76;100.00
31681;BME280;18281;51.364;9.566;2024-03-06T00:07:02;100144.69;;;4.78;100.00
31681;BME280;18281;51.364;9.566;2024-03-06T00:09:27;100147.34;;;4.77;100.00
31681;BME280;18281;51.364;9.566;2024-03-06T00:11:53;100143.88;;;4.76;100.00
31681;BME280;18281;51.364;9.566;2024-03-06T00:14:19;100146.47;;;4.76;100.00
31681;BME280;18281;51.364;9.566;2024-03-06T00:16:47;100162.28;;;4.70;100.00
31681;BME280;18281;51.364;9.566;2024-03-06T00:19:13;100155.25;;;4.72;100.00
31681;BME280;18281;51.364;9.566;2024-03-06T00:21:39;100157.06;;;4.70;100.00
31681;BME280;18281;51.364;9.566;2024-03-06T00:24:04;100162.28;;;4.70;100.00
31681;BME280;18281;51.364;9.566;2024-03-06T00:26:30;100162.28;;;4.70;100.00
31681;BME280;18281;51.364;9.566;2024-03-06T00:28:55;100162.28;;;4.70;100.00
31681;BME280;18281;51.364;9.566;2024-03-06T00:31:26;100167.47;;;4.70;100.00
31681;BME280;18281;51.364;9.566;2024-03-06T00:33:54;100173.56;;;4.69;100.00
31681;BME280;18281;51.364;9.566;2024-03-06T00:36:20;100171.06;;;4.66;100.00
31681;BME280;18281;51.364;9.566;2024-03-06T00:38:47;100171.00;;;4.67;100.00
31681;BME280;18281;51.364;9.566;2024-03-06T00:41:13;100177.09;;;4.66;100.00
31681;BME280;18281;51.364;9.566;2024-03-06T00:43:38;100176.28;;;4.64;100.00
31681;BME280;18281;51.364;9.566;2024-03-06T00:46:03;100179.81;;;4.62;100.00
31681;BME280;18281;51.364;9.566;2024-03-06T00:48:29;100186.72;;;4.63;100.00
31681;BME280;18281;51.364;9.566;2024-03-06T00:50:54;100185.88;;;4.62;100.00
31681;BME280;18281;51.364;9.566;2024-03-06T00:53:19;100192.03;;;4.60;100.00
31681;BME280;18281;51.364;9.566;2024-03-06T00:55:46;100186.81;;;4.60;100.00
31681;BME280;18281;51.364;9.566;2024-03-06T00:58:11;100181.78;;;4.53;100.00
31681;BME280;18281;51.364;9.566;2024-03-06T01:00:37;100182.59;;;4.55;100.00
31681;BME280;18281;51.364;9.566;2024-03-06T01:03:03;100183.53;;;4.53;100.00
31681;BME280;18281;51.364;9.566;2024-03-06T01:05:29;100193.06;;;4.54;100.00
31681;BME280;18281;51.364;9.566;2024-03-06T01:07:54;100181.84;;;4.52;100.00
31681;BME280;18281;51.364;9.566;2024-03-06T01:10:22;100183.66;;;4.48;100.00
31681;BME280;18281;51.364;9.566;2024-03-06T01:12:47;100187.06;;;4.50;100.00
31681;BME280;18281;51.364;9.566;2024-03-06T01:15:13;100193.16;;;4.49;100.00
31681;BME280;18281;51.364;9.566;2024-03-06T01:17:38;100192.28;;;4.50;100.00
31681;BME280;18281;51.364;9.566;2024-03-06T01:20:05;100187.16;;;4.47;100.00
31681;BME280;18281;51.364;9.566;2024-03-06T01:22:34;100193.22;;;4.48;100.00
31681;BME280;18281;51.364;9.566;2024-03-06T01:25:00;100193.25;;;4.46;100.00
31681;BME280;18281;51.364;9.566;2024-03-06T01:27:26;100188.94;;;4.45;100.00
31681;BME280;18281;51.364;9.566;2024-03-06T01:29:52;100183.75;;;4.45;100.00
31681;BME280;18281;51.364;9.566;2024-03-06T01:32:17;100199.34;;;4.45;100.00
31681;BME280;18281;51.364;9.566;2024-03-06T01:34:43;100195.13;;;4.41;100.00
31681;BME280;18281;51.364;9.566;2024-03-06T01:37:08;100197.78;;;4.39;100.00
31681;BME280;18281;51.364;9.566;2024-03-06T01:39:34;100198.59;;;4.40;100.00
31681;BME280;18281;51.364;9.566;2024-03-06T01:42:01;100203.13;;;4.33;100.00
31681;BME280;18281;51.364;9.566;2024-03-06T01:44:26;100211.78;;;4.34;100.00
31681;BME280;18281;51.364;9.566;2024-03-06T01:46:52;100214.25;;;4.38;100.00
31681;BME280;18281;51.364;9.566;2024-03-06T01:49:17;100211.69;;;4.37;100.00
31681;BME280;18281;51.364;9.566;2024-03-06T01:51:48;100213.41;;;4.38;100.00
31681;BME280;18281;51.364;9.566;2024-03-06T01:54:15;100217.81;;;4.34;100.00
31681;BME280;18281;51.364;9.566;2024-03-06T01:56:44;100221.28;;;4.35;100.00
31681;BME280;18281;51.364;9.566;2024-03-06T01:59:11;100225.59;;;4.36;100.00
31681;BME280;18281;51.364;9.566;2024-03-06T02:01:39;100218.66;;;4.35;100.00
31681;BME280;18281;51.364;9.566;2024-03-06T02:04:06;100218.66;;;4.35;100.00
31681;BME280;18281;51.364;9.566;2024-03-06T02:06:35;100216.13;;;4.33;100.00
31681;BME280;18281;51.364;9.566;2024-03-06T02:09:00;100217.97;;;4.30;100.00
31681;BME280;18281;51.364;9.566;2024-03-06T02:11:26;100218.06;;;4.25;100.00
31681;BME280;18281;51.364;9.566;2024-03-06T02:13:51;100213.75;;;4.26;100.00
31681;BME280;18281;51.364;9.566;2024-03-06T02:16:17;100216.44;;;4.21;100.00
31681;BME280;18281;51.364;9.566;2024-03-06T02:18:55;100215.50;;;4.23;100.00
31681;BME280;18281;51.364;9.566;2024-03-06T02:21:21;100225.91;;;4.23;100.00
31681;BME280;18281;51.364;9.566;2024-03-06T02:23:47;100230.22;;;4.25;100.00
31681;BME280;18281;51.364;9.566;2024-03-06T02:26:12;100223.25;;;4.25;100.00
31681;BME280;18281;51.364;9.566;2024-03-06T02:28:38;100229.34;;;4.24;100.00
31681;BME280;18281;51.364;9.566;2024-03-06T02:31:03;100236.22;;;4.27;100.00
31681;BME280;18281;51.364;9.566;2024-03-06T02:33:32;100230.22;;;4.25;100.00
31681;BME280;18281;51.364;9.566;2024-03-06T02:35:59;100232.81;;;4.25;100.00
31681;BME280;18281;51.364;9.566;2024-03-06T02:38:24;100228.50;;;4.23;100.00
31681;BME280;18281;51.364;9.566;2024-03-06T02:40:50;100228.56;;;4.22;100.00
31681;BME280;18281;51.364;9.566;2024-03-06T02:43:15;100229.44;;;4.21;100.00
31681;BME280;18281;51.364;9.566;2024-03-06T02:45:41;100235.47;;;4.21;100.00
31681;BME280;18281;51.364;9.566;2024-03-06T02:48:06;100238.13;;;4.20;100.00
31681;BME280;18281;51.364;9.566;2024-03-06T02:50:32;100237.28;;;4.19;100.00
31681;BME280;18281;51.364;9.566;2024-03-06T02:52:57;100239.91;;;4.18;100.00
31681;BME280;18281;51.364;9.566;2024-03-06T02:55:23;100246.84;;;4.19;100.00
31681;BME280;18281;51.364;9.566;2024-03-06T02:57:50;100243.34;;;4.18;100.00
31681;BME280;18281;51.364;9.566;2024-03-06T03:00:15;100245.16;;;4.16;100.00
31681;BME280;18281;51.364;9.566;2024-03-06T03:02:41;100235.59;;;4.17;100.00
31681;BME280;18281;51.364;9.566;2024-03-06T03:05:08;100239.97;;;4.16;100.00
31681;BME280;18281;51.364;9.566;2024-03-06T03:07:33;100242.56;;;4.15;100.00
31681;BME280;18281;51.364;9.566;2024-03-06T03:09:58;100241.66;;;4.17;100.00
31681;BME280;18281;51.364;9.566;2024-03-06T03:12:24;100243.34;;;4.18;100.00
31681;BME280;18281;51.364;9.566;2024-03-06T03:14:49;100246.94;;;4.14;100.00
31681;BME280;18281;51.364;9.566;2024-03-06T03:17:15;100243.50;;;4.14;100.00
31681;BME280;18281;51.364;9.566;2024-03-06T03:19:40;100246.94;;;4.14;100.00
31681;BME280;18281;51.364;9.566;2024-03-06T03:22:06;100250.41;;;4.13;100.00
31681;BME280;18281;51.364;9.566;2024-03-06T03:24:31;100262.56;;;4.13;100.00
31681;BME280;18281;51.364;9.566;2024-03-06T03:26:57;100254.78;;;4.13;100.00
31681;BME280;18281;51.364;9.566;2024-03-06T03:29:22;100260.00;;;4.11;100.00
31681;BME280;18281;51.364;9.566;2024-03-06T03:31:48;100261.72;;;4.11;100.00
31681;BME280;18281;51.364;9.566;2024-03-06T03:34:14;100260.06;;;4.10;100.00
31681;BME280;18281;51.364;9.566;2024-03-06T03:36:40;100259.19;;;4.09;100.00
31681;BME280;18281;51.364;9.566;2024-03-06T03:39:06;100261.78;;;4.09;100.00
31681;BME280;18281;51.364;9.566;2024-03-06T03:41:42;100260.97;;;4.07;100.00
31681;BME280;18281;51.364;9.566;2024-03-06T03:44:07;100263.63;;;4.05;100.00
31681;BME280;18281;51.364;9.566;2024-03-06T03:46:32;100262.75;;;4.05;100.00
31681;BME280;18281;51.364;9.566;2024-03-06T03:48:58;100267.94;;;4.05;100.00
31681;BME280;18281;51.364;9.566;2024-03-06T03:51:23;100266.31;;;4.01;100.00
31681;BME280;18281;51.364;9.566;2024-03-06T03:53:48;100266.28;;;4.02;100.00
31681;BME280;18281;51.364;9.566;2024-03-06T03:56:16;100274.06;;;4.02;100.00
31681;BME280;18281;51.364;9.566;2024-03-06T03:58:41;100270.72;;;3.99;100.00
31681;BME280;18281;51.364;9.566;2024-03-06T04:01:10;100275.00;;;4.00;100.00
31681;BME280;18281;51.364;9.566;2024-03-06T04:03:36;100275.00;;;4.00;100.00
31681;BME280;18281;51.364;9.566;2024-03-06T04:06:01;100270.72;;;3.99;100.00
31681;BME280;18281;51.364;9.566;2024-03-06T04:08:27;100279.34;;;3.99;100.00
31681;BME280;18281;51.364;9.566;2024-03-06T04:10:52;100286.28;;;3.99;100.00
31681;BME280;18281;51.364;9.566;2024-03-06T04:13:18;100288.03;;;3.98;100.00
31681;BME280;18281;51.364;9.566;2024-03-06T04:15:45;100293.22;;;3.98;100.00
31681;BME280;18281;51.364;9.566;2024-03-06T04:18:11;100292.38;;;3.98;100.00
31681;BME280;18281;51.364;9.566;2024-03-06T04:20:36;100297.59;;;3.96;100.00
31681;BME280;18281;51.364;9.566;2024-03-06T04:23:03;100296.75;;;3.96;100.00
31681;BME280;18281;51.364;9.566;2024-03-06T04:25:29;100297.63;;;3.95;100.00
31681;BME280;18281;51.364;9.566;2024-03-06T04:27:54;100297.63;;;3.95;100.00
31681;BME280;18281;51.364;9.566;2024-03-06T04:30:19;100301.13;;;3.94;100.00
31681;BME280;18281;51.364;9.566;2024-03-06T04:32:45;100303.78;;;3.92;100.00
31681;BME280;18281;51.364;9.566;2024-03-06T04:35:10;100300.25;;;3.93;100.00
31681;BME280;18281;51.364;9.566;2024-03-06T04:37:36;100308.97;;;3.92;100.00
31681;BME280;18281;51.364;9.566;2024-03-06T04:40:03;100302.09;;;3.89;100.00
31681;BME280;18281;51.364;9.566;2024-03-06T04:42:33;100304.69;;;3.89;100.00
31681;BME280;18281;51.364;9.566;2024-03-06T04:45:01;100304.69;;;3.89;100.00
31681;BME280;18281;51.364;9.566;2024-03-06T04:47:26;100307.28;;;3.89;100.00
31681;BME280;18281;51.364;9.566;2024-03-06T04:49:52;100311.56;;;3.91;100.00
31681;BME280;18281;51.364;9.566;2024-03-06T04:52:18;100318.53;;;3.90;100.00
31681;BME280;18281;51.364;9.566;2024-03-06T04:54:43;100320.28;;;3.88;100.00
31681;BME280;18281;51.364;9.566;2024-03-06T04:57:09;100321.97;;;3.91;100.00
31681;BME280;18281;51.364;9.566;2024-03-06T04:59:34;100319.38;;;3.91;100.00
31681;BME280;18281;51.364;9.566;2024-03-06T05:02:00;100320.28;;;3.89;100.00
31681;BME280;18281;51.364;9.566;2024-03-06T05:04:26;100330.72;;;3.86;100.00
31681;BME280;18281;51.364;9.566;2024-03-06T05:06:52;100325.47;;;3.89;100.00
31681;BME280;18281;51.364;9.566;2024-03-06T05:09:17;100331.53;;;3.88;100.00
31681;BME280;18281;51.364;9.566;2024-03-06T05:11:43;100333.25;;;3.89;100.00
31681;BME280;18281;51.364;9.566;2024-03-06T05:14:08;100333.28;;;3.88;100.00
31681;BME280;18281;51.364;9.566;2024-03-06T05:16:33;100335.03;;;3.87;100.00
31681;BME280;18281;51.364;9.566;2024-03-06T05:18:59;100339.41;;;3.85;100.00
31681;BME280;18281;51.364;9.566;2024-03-06T05:21:25;100342.84;;;3.86;100.00
31681;BME280;18281;51.364;9.566;2024-03-06T05:23:50;100344.63;;;3.85;100.00
31681;BME280;18281;51.364;9.566;2024-03-06T05:26:16;100348.94;;;3.85;100.00
31681;BME280;18281;51.364;9.566;2024-03-06T05:28:41;100346.38;;;3.83;100.00
31681;BME280;18281;51.364;9.566;2024-03-06T05:31:16;100353.28;;;3.84;100.00
31681;BME280;18281;51.364;9.566;2024-03-06T05:33:47;100357.66;;;3.82;100.00
31681;BME280;18281;51.364;9.566;2024-03-06T05:36:13;100356.75;;;3.83;100.00
31681;BME280;18281;51.364;9.566;2024-03-06T05:38:39;100363.69;;;3.84;100.00
31681;BME280;18281;51.364;9.566;2024-03-06T05:41:04;100355.06;;;3.82;100.00
31681;BME280;18281;51.364;9.566;2024-03-06T05:43:31;100364.56;;;3.83;100.00
31681;BME280;18281;51.364;9.566;2024-03-06T05:45:56;100367.22;;;3.80;100.00
31681;BME280;18281;51.364;9.566;2024-03-06T05:48:21;100368.03;;;3.82;100.00
31681;BME280;18281;51.364;9.566;2024-03-06T05:50:49;100375.03;;;3.80;100.00
31681;BME280;18281;51.364;9.566;2024-03-06T05:53:14;100376.72;;;3.81;100.00
31681;BME280;18281;51.364;9.566;2024-03-06T05:55:39;100384.50;;;3.81;100.00
31681;BME280;18281;51.364;9.566;2024-03-06T05:58:05;100380.22;;;3.80;100.00
31681;BME280;18281;51.364;9.566;2024-03-06T06:00:31;100388.03;;;3.79;100.00
31681;BME280;18281;51.364;9.566;2024-03-06T06:02:56;100385.41;;;3.80;100.00
31681;BME280;18281;51.364;9.566;2024-03-06T06:05:21;100393.44;;;4.09;100.00
31681;BME280;18281;51.364;9.566;2024-03-06T06:07:48;100396.44;;;5.33;100.00
31681;BME280;18281;51.364;9.566;2024-03-06T06:10:14;100390.22;;;6.00;100.00
31681;BME280;18281;51.364;9.566;2024-03-06T06:12:39;100394.16;;;5.83;100.00
31681;BME280;18281;51.364;9.566;2024-03-06T06:15:06;100395.09;;;5.82;100.00
31681;BME280;18281;51.364;9.566;2024-03-06T06:17:33;100400.19;;;5.85;100.00
31681;BME280;18281;51.364;9.566;2024-03-06T06:19:59;100403.75;;;5.83;100.00
31681;BME280;18281;51.364;9.566;2024-03-06T06:22:27;100403.59;;;5.87;100.00
31681;BME280;18281;51.364;9.566;2024-03-06T06:24:52;100403.59;;;5.87;100.00
31681;BME280;18281;51.364;9.566;2024-03-06T06:27:20;100407.81;;;5.92;100.00
31681;BME280;18281;51.364;9.566;2024-03-06T06:29:45;100421.16;;;5.81;100.00
31681;BME280;18281;51.364;9.566;2024-03-06T06:32:11;100427.63;;;5.67;100.00
31681;BME280;18281;51.364;9.566;2024-03-06T06:34:36;100424.00;;;5.42;100.00
31681;BME280;18281;51.364;9.566;2024-03-06T06:37:02;100427.06;;;5.23;100.00
31681;BME280;18281;51.364;9.566;2024-03-06T06:39:27;100434.50;;;5.04;100.00
31681;BME280;18281;51.364;9.566;2024-03-06T06:41:52;100434.88;;;4.90;100.00
31681;BME280;18281;51.364;9.566;2024-03-06T06:44:18;100433.38;;;4.80;100.00
31681;BME280;18281;51.364;9.566;2024-03-06T06:46:43;100440.53;;;4.71;100.00
31681;BME280;18281;51.364;9.566;2024-03-06T06:49:09;100442.41;;;4.65;100.00
31681;BME280;18281;51.364;9.566;2024-03-06T06:51:34;100446.88;;;4.60;100.00
31681;BME280;18281;51.364;9.566;2024-03-06T06:54:00;100462.56;;;4.55;100.00
31681;BME280;18281;51.364;9.566;2024-03-06T06:56:26;100461.84;;;4.50;100.00
31681;BME280;18281;51.364;9.566;2024-03-06T06:58:51;100461.13;;;4.43;100.00
31681;BME280;18281;51.364;9.566;2024-03-06T07:01:16;100465.09;;;5.30;100.00
31681;BME280;18281;51.364;9.566;2024-03-06T07:03:42;100474.69;;;5.61;100.00
31681;BME280;18281;51.364;9.566;2024-03-06T07:06:08;100468.50;;;5.65;100.00
31681;BME280;18281;51.364;9.566;2024-03-06T07:08:33;100475.28;;;5.71;100.00
31681;BME280;18281;51.364;9.566;2024-03-06T07:10:58;100481.38;;;5.70;100.00
31681;BME280;18281;51.364;9.566;2024-03-06T07:13:24;100473.50;;;5.73;100.00
31681;BME280;18281;51.364;9.566;2024-03-06T07:15:49;100482.84;;;5.80;100.00
31681;BME280;18281;51.364;9.566;2024-03-06T07:18:15;100480.16;;;5.83;100.00
31681;BME280;18281;51.364;9.566;2024-03-06T07:20:40;100477.59;;;5.82;100.00
31681;BME280;18281;51.364;9.566;2024-03-06T07:23:06;100486.13;;;5.87;100.00
31681;BME280;18281;51.364;9.566;2024-03-06T07:25:31;100476.44;;;5.92;100.00
31681;BME280;18281;51.364;9.566;2024-03-06T07:27:57;100477.44;;;5.88;100.00
31681;BME280;18281;51.364;9.566;2024-03-06T07:30:22;100492.28;;;5.84;100.00
31681;BME280;18281;51.364;9.566;2024-03-06T07:32:48;100485.84;;;5.66;100.00
31681;BME280;18281;51.364;9.566;2024-03-06T07:35:13;100484.69;;;5.45;100.00
31681;BME280;18281;51.364;9.566;2024-03-06T07:37:39;100498.88;;;5.32;100.00
31681;BME280;18281;51.364;9.566;2024-03-06T07:40:08;100504.41;;;5.19;100.00
31681;BME280;18281;51.364;9.566;2024-03-06T07:42:34;100506.38;;;5.10;100.00
31681;BME280;18281;51.364;9.566;2024-03-06T07:45:00;100504.69;;;5.07;100.00
31681;BME280;18281;51.364;9.566;2024-03-06T07:47:25;100505.84;;;4.97;100.00
31681;BME280;18281;51.364;9.566;2024-03-06T07:49:52;100512.06;;;4.89;100.00
31681;BME280;18281;51.364;9.566;2024-03-06T07:52:17;100515.63;;;4.85;100.00
31681;BME280;18281;51.364;9.566;2024-03-06T07:54:42;100517.47;;;4.80;100.00
31681;BME280;18281;51.364;9.566;2024-03-06T07:57:08;100514.94;;;4.77;100.00
31681;BME280;18281;51.364;9.566;2024-03-06T07:59:35;100524.59;;;4.72;100.00
31681;BME280;18281;51.364;9.566;2024-03-06T08:02:00;100524.69;;;4.69;100.00
31681;BME280;18281;51.364;9.566;2024-03-06T08:04:26;100526.41;;;4.68;100.00
31681;BME280;18281;51.364;9.566;2024-03-06T08:06:52;100536.00;;;4.66;100.00
31681;BME280;18281;51.364;9.566;2024-03-06T08:09:17;100530.00;;;4.63;100.00
31681;BME280;18281;51.364;9.566;2024-03-06T08:11:44;100529.97;;;4.64;100.00
31681;BME280;18281;51.364;9.566;2024-03-06T08:14:10;100536.09;;;4.63;100.00
31681;BME280;18281;51.364;9.566;2024-03-06T08:16:35;100530.00;;;4.63;100.00
31681;BME280;18281;51.364;9.566;2024-03-06T08:19:02;100542.16;;;4.62;100.00
31681;BME280;18281;51.364;9.566;2024-03-06T08:21:28;100538.69;;;4.62;100.00
31681;BME280;18281;51.364;9.566;2024-03-06T08:23:53;100537.84;;;4.61;100.00
31681;BME280;18281;51.364;9.566;2024-03-06T08:26:19;100547.41;;;4.61;100.00
31681;BME280;18281;51.364;9.566;2024-03-06T08:28:44;100546.56;;;4.59;100.00
31681;BME280;18281;51.364;9.566;2024-03-06T08:31:10;100550.13;;;4.54;100.00
31681;BME280;18281;51.364;9.566;2024-03-06T08:33:35;100548.38;;;4.56;100.00
31681;BME280;18281;51.364;9.566;2024-03-06T08:36:01;100555.28;;;4.56;100.00
31681;BME280;18281;51.364;9.566;2024-03-06T08:38:27;100559.53;;;4.60;100.00
31681;BME280;18281;51.364;9.566;2024-03-06T08:40:52;100563.91;;;4.60;100.00
31681;BME280;18281;51.364;9.566;2024-03-06T08:43:18;100563.00;;;4.61;100.00
31681;BME280;18281;51.364;9.566;2024-03-06T08:45:44;100569.97;;;4.59;100.00
31681;BME280;18281;51.364;9.566;2024-03-06T08:48:09;100569.09;;;4.60;100.00
31681;BME280;18281;51.364;9.566;2024-03-06T08:50:36;100573.41;;;4.61;100.00
31681;BME280;18281;51.364;9.566;2024-03-06T08:53:02;100572.50;;;4.62;100.00
31681;BME280;18281;51.364;9.566;2024-03-06T08:55:27;100582.06;;;4.61;100.00
31681;BME280;18281;51.364;9.566;2024-03-06T08:57:56;100587.41;;;4.53;100.00
31681;BME280;18281;51.364;9.566;2024-03-06T09:00:22;100579.50;;;4.60;100.00
31681;BME280;18281;51.364;9.566;2024-03-06T09:02:47;100584.69;;;4.60;100.00
31681;BME280;18281;51.364;9.566;2024-03-06T09:05:12;100589.91;;;4.60;100.00
31681;BME280;18281;51.364;9.566;2024-03-06T09:07:39;100598.50;;;4.63;100.00
31681;BME280;18281;51.364;9.566;2024-03-06T09:10:15;100596.72;;;4.65;100.00
31681;BME280;18281;51.364;9.566;2024-03-06T09:12:40;100596.72;;;4.65;100.00
31681;BME280;18281;51.364;9.566;2024-03-06T09:15:06;100601.06;;;4.65;100.00
31681;BME280;18281;51.364;9.566;2024-03-06T09:17:36;100604.47;;;4.67;100.00
31681;BME280;18281;51.364;9.566;2024-03-06T09:20:02;100603.59;;;4.68;100.00
31681;BME280;18281;51.364;9.566;2024-03-06T09:22:40;100603.59;;;4.68;100.00
31681;BME280;18281;51.364;9.566;2024-03-06T09:25:06;100607.94;;;4.67;100.00
31681;BME280;18281;51.364;9.566;2024-03-06T09:27:32;100616.59;;;4.68;100.00
31681;BME280;18281;51.364;9.566;2024-03-06T09:29:58;100608.00;;;4.66;100.00
31681;BME280;18281;51.364;9.566;2024-03-06T09:32:23;100609.75;;;4.64;100.00
31681;BME280;18281;51.364;9.566;2024-03-06T09:34:51;100611.41;;;4.68;100.00
31681;BME280;18281;51.364;9.566;2024-03-06T09:37:17;100606.13;;;4.71;100.00
31681;BME280;18281;51.364;9.566;2024-03-06T09:39:43;100614.69;;;4.76;100.00
31681;BME280;18281;51.364;9.566;2024-03-06T09:42:12;100615.47;;;4.80;100.00
31681;BME280;18281;51.364;9.566;2024-03-06T09:44:38;100618.16;;;4.75;100.00
31681;BME280;18281;51.364;9.566;2024-03-06T09:47:05;100618.97;;;4.79;100.00
31681;BME280;18281;51.364;9.566;2024-03-06T09:49:31;100610.16;;;4.86;100.00
31681;BME280;18281;51.364;9.566;2024-03-06T09:51:58;100618.84;;;4.85;100.00
31681;BME280;18281;51.364;9.566;2024-03-06T09:54:25;100621.41;;;4.86;100.00
31681;BME280;18281;51.364;9.566;2024-03-06T09:56:52;100623.16;;;4.84;100.00
31681;BME280;18281;51.364;9.566;2024-03-06T09:59:17;100627.41;;;4.88;100.00
31681;BME280;18281;51.364;9.566;2024-03-06T10:01:56;100630.75;;;4.95;100.00
31681;BME280;18281;51.364;9.566;2024-03-06T10:04:26;100632.50;;;4.95;100.00
31681;BME280;18281;51.364;9.566;2024-03-06T10:06:59;100635.91;;;4.98;100.00
31681;BME280;18281;51.364;9.566;2024-03-06T10:09:26;100641.16;;;4.95;100.00
31681;BME280;18281;51.364;9.566;2024-03-06T10:11:52;100634.09;;;5.00;100.00
31681;BME280;18281;51.364;9.566;2024-03-06T10:14:22;100626.16;;;5.06;100.00
31681;BME280;18281;51.364;9.566;2024-03-06T10:16:56;100628.69;;;5.10;100.00
31681;BME280;18281;51.364;9.566;2024-03-06T10:19:22;100632.00;;;5.16;100.00
31681;BME280;18281;51.364;9.566;2024-03-06T10:21:48;100639.00;;;5.14;100.00
31681;BME280;18281;51.364;9.566;2024-03-06T10:24:21;100640.75;;;5.14;100.00
31681;BME280;18281;51.364;9.566;2024-03-06T10:26:48;100641.47;;;5.20;100.00
31681;BME280;18281;51.364;9.566;2024-03-06T10:29:18;100640.69;;;5.17;100.00
31681;BME280;18281;51.364;9.566;2024-03-06T10:31:51;100648.31;;;5.24;100.00
31681;BME280;18281;51.364;9.566;2024-03-06T10:34:16;100649.22;;;5.22;100.00
31681;BME280;18281;51.364;9.566;2024-03-06T10:36:43;100657.06;;;5.20;100.00
31681;BME280;18281;51.364;9.566;2024-03-06T10:39:11;100653.31;;;5.34;100.00
31681;BME280;18281;51.364;9.566;2024-03-06T10:41:40;100652.53;;;5.29;100.00
31681;BME280;18281;51.364;9.566;2024-03-06T10:44:10;100653.50;;;5.24;100.00
31681;BME280;18281;51.364;9.566;2024-03-06T10:46:41;100648.16;;;5.31;100.00
31681;BME280;18281;51.364;9.566;2024-03-06T10:49:09;100649.97;;;5.27;100.00
31681;BME280;18281;51.364;9.566;2024-03-06T10:51:39;100653.50;;;5.24;100.00
31681;BME280;18281;51.364;9.566;2024-03-06T10:54:08;100654.47;;;5.20;100.00
31681;BME280;18281;51.364;9.566;2024-03-06T10:56:34;100657.00;;;5.25;100.00
31681;BME280;18281;51.364;9.566;2024-03-06T10:58:59;100661.31;;;5.26;100.00
31681;BME280;18281;51.364;9.566;2024-03-06T11:01:25;100661.22;;;5.29;100.00
31681;BME280;18281;51.364;9.566;2024-03-06T11:03:51;100661.09;;;5.37;100.00
31681;BME280;18281;51.364;9.566;2024-03-06T11:06:17;100667.19;;;5.36;100.00
31681;BME280;18281;51.364;9.566;2024-03-06T11:08:43;100668.75;;;5.43;100.00
31681;BME280;18281;51.364;9.566;2024-03-06T11:11:22;100666.88;;;5.48;100.00
31681;BME280;18281;51.364;9.566;2024-03-06T11:13:48;100671.31;;;5.45;100.00
31681;BME280;18281;51.364;9.566;2024-03-06T11:16:14;100671.47;;;5.38;100.00
31681;BME280;18281;51.364;9.566;2024-03-06T11:23:34;100660.88;;;5.46;100.00
31681;BME280;18281;51.364;9.566;2024-03-06T11:28:29;100663.44;;;5.48;100.00
31681;BME280;18281;51.364;9.566;2024-03-06T11:30:55;100665.75;;;5.60;100.00
31681;BME280;18281;51.364;9.566;2024-03-06T11:33:22;100666.59;;;5.61;100.00
31681;BME280;18281;51.364;9.566;2024-03-06T11:36:18;100658.59;;;5.68;100.00
31681;BME280;18281;51.364;9.566;2024-03-06T11:39:04;100663.00;;;5.66;100.00
31681;BME280;18281;51.364;9.566;2024-03-06T11:41:31;100663.75;;;5.70;100.00
31681;BME280;18281;51.364;9.566;2024-03-06T11:44:00;100667.25;;;5.70;100.00
31681;BME280;18281;51.364;9.566;2024-03-06T11:46:56;100659.28;;;5.75;100.00
31681;BME280;18281;51.364;9.566;2024-03-06T11:49:24;100666.13;;;5.79;100.00
31681;BME280;18281;51.364;9.566;2024-03-06T11:51:56;100669.56;;;5.81;100.00
31681;BME280;18281;51.364;9.566;2024-03-06T11:54:23;100672.09;;;5.84;100.00
31681;BME280;18281;51.364;9.566;2024-03-06T11:56:52;100670.59;;;5.74;100.00
31681;BME280;18281;51.364;9.566;2024-03-06T11:59:25;100674.50;;;6.25;100.00
31681;BME280;18281;51.364;9.566;2024-03-06T12:01:55;100674.69;;;7.12;100.00
31681;BME280;18281;51.364;9.566;2024-03-06T12:04:21;100677.41;;;7.37;100.00
31681;BME280;18281;51.364;9.566;2024-03-06T12:06:47;100670.66;;;7.58;100.00
31681;BME280;18281;51.364;9.566;2024-03-06T12:09:13;100674.84;;;7.35;100.00
31681;BME280;18281;51.364;9.566;2024-03-06T12:11:39;100672.94;;;7.12;100.00
31681;BME280;18281;51.364;9.566;2024-03-06T12:14:04;100671.41;;;7.05;100.00
31681;BME280;18281;51.364;9.566;2024-03-06T12:16:31;100664.09;;;6.86;100.00
31681;BME280;18281;51.364;9.566;2024-03-06T12:18:58;100666.50;;;6.94;100.00
31681;BME280;18281;51.364;9.566;2024-03-06T12:21:33;100668.13;;;6.98;100.00
31681;BME280;18281;51.364;9.566;2024-03-06T12:24:09;100662.16;;;6.93;100.00
31681;BME280;18281;51.364;9.566;2024-03-06T12:26:36;100661.44;;;6.88;100.00
31681;BME280;18281;51.364;9.566;2024-03-06T12:29:10;100665.88;;;6.86;100.00
31681;BME280;18281;51.364;9.566;2024-03-06T12:31:41;100675.63;;;6.79;100.00
31681;BME280;18281;51.364;9.566;2024-03-06T12:34:14;100670.13;;;6.58;100.00
31681;BME280;18281;51.364;9.566;2024-03-06T12:36:40;100670.72;;;6.68;100.00
31681;BME280;18281;51.364;9.566;2024-03-06T12:39:06;100672.47;;;6.68;100.00
31681;BME280;18281;51.364;9.566;2024-03-06T12:41:41;100665.47;;;6.70;100.00
31681;BME280;18281;51.364;9.566;2024-03-06T12:44:06;100665.41;;;6.71;100.00
31681;BME280;18281;51.364;9.566;2024-03-06T12:46:32;100670.50;;;6.76;100.00
31681;BME280;18281;51.364;9.566;2024-03-06T12:48:57;100664.63;;;6.69;100.00
31681;BME280;18281;51.364;9.566;2024-03-06T12:51:23;100667.06;;;6.74;100.00
31681;BME280;18281;51.364;9.566;2024-03-06T12:53:48;100664.31;;;6.79;100.00
31681;BME280;18281;51.364;9.566;2024-03-06T12:56:17;100666.94;;;6.79;100.00